createdAt,value
2017-06-02T00:02:07.282Z,20.20
2017-06-02T00:04:34.279Z,20.20
2017-06-02T00:07:01.670Z,20.20
2017-06-02T00:09:28.618Z,20.20
2017-06-02T00:11:55.585Z,20.30
2017-06-02T00:14:22.867Z,20.30
2017-06-02T00:16:50.208Z,20.30
2017-06-02T00:19:17.542Z,20.20
2017-06-02T00:21:44.886Z,20.30
2017-06-02T00:24:12.171Z,20.20
2017-06-02T00:26:39.505Z,20.10
2017-06-02T00:29:06.802Z,20.10
2017-06-02T00:31:34.116Z,20.10
2017-06-02T00:34:01.467Z,19.90
2017-06-02T00:36:28.754Z,19.80
2017-06-02T00:38:56.046Z,19.70
2017-06-02T00:41:23.386Z,19.80
2017-06-02T00:43:50.677Z,19.80
2017-06-02T00:46:18.036Z,19.80
2017-06-02T00:48:45.537Z,19.90
2017-06-02T00:51:12.817Z,19.90
2017-06-02T00:53:40.117Z,20.00
2017-06-02T00:56:07.442Z,19.90
2017-06-02T00:58:34.809Z,19.80
2017-06-02T01:01:02.170Z,19.80
2017-06-02T01:03:29.526Z,19.70
2017-06-02T01:05:56.418Z,19.70
2017-06-02T01:08:23.725Z,19.40
2017-06-02T01:10:51.087Z,19.40
2017-06-02T01:13:18.449Z,19.30
2017-06-02T01:15:45.800Z,19.30
2017-06-02T01:18:13.127Z,19.30
2017-06-02T01:20:40.410Z,19.30
2017-06-02T01:23:08.176Z,19.30
2017-06-02T01:25:35.537Z,19.40
2017-06-02T01:28:02.821Z,19.40
2017-06-02T01:30:30.102Z,19.50
2017-06-02T01:32:57.439Z,19.50
2017-06-02T01:35:24.329Z,19.50
2017-06-02T01:37:51.710Z,19.50
2017-06-02T01:40:19.172Z,19.50
2017-06-02T01:42:46.505Z,19.60
2017-06-02T01:45:13.401Z,19.60
2017-06-02T01:47:40.758Z,19.50
2017-06-02T01:50:07.653Z,19.50
2017-06-02T01:52:35.019Z,19.50
2017-06-02T01:55:02.373Z,19.50
2017-06-02T01:57:29.260Z,19.50
2017-06-02T01:59:56.544Z,19.40
2017-06-02T02:02:23.866Z,19.30
2017-06-02T02:04:50.762Z,19.40
2017-06-02T02:07:18.054Z,19.20
2017-06-02T02:09:45.475Z,19.20
2017-06-02T02:12:12.831Z,19.20
2017-06-02T02:14:40.187Z,19.20
2017-06-02T02:17:07.545Z,19.20
2017-06-02T02:19:34.877Z,19.20
2017-06-02T02:22:02.162Z,19.20
2017-06-02T02:24:29.505Z,19.20
2017-06-02T02:26:56.806Z,19.20
2017-06-02T02:29:24.118Z,19.20
2017-06-02T02:31:51.082Z,19.20
2017-06-02T02:34:18.402Z,19.20
2017-06-02T02:36:45.693Z,19.00
2017-06-02T02:39:12.755Z,19.00
2017-06-02T02:41:40.102Z,18.90
2017-06-02T02:44:07.476Z,18.90
2017-06-02T02:46:34.831Z,18.80
2017-06-02T02:49:02.111Z,18.80
2017-06-02T02:51:29.394Z,18.70
2017-06-02T02:53:56.350Z,18.70
2017-06-02T02:56:23.639Z,18.70
2017-06-02T02:58:50.530Z,18.70
2017-06-02T03:01:17.909Z,18.70
2017-06-02T03:03:45.194Z,18.60
2017-06-02T03:06:12.081Z,18.60
2017-06-02T03:08:39.468Z,18.50
2017-06-02T03:11:06.769Z,18.50
2017-06-02T03:13:34.071Z,18.50
2017-06-02T03:16:01.529Z,18.50
2017-06-02T03:18:28.819Z,18.50
2017-06-02T03:20:56.106Z,18.50
2017-06-02T03:23:23.486Z,18.60
2017-06-02T03:25:50.878Z,18.50
2017-06-02T03:28:18.158Z,18.50
2017-06-02T03:30:45.562Z,18.70
2017-06-02T03:33:12.866Z,18.70
2017-06-02T03:35:40.157Z,18.60
2017-06-02T03:38:07.477Z,18.50
2017-06-02T03:40:34.764Z,18.40
2017-06-02T03:43:02.073Z,18.50
2017-06-02T03:45:29.403Z,18.50
2017-06-02T03:47:56.766Z,18.60
2017-06-02T03:50:24.065Z,18.60
2017-06-02T03:52:51.005Z,18.60
2017-06-02T03:55:17.996Z,18.50
2017-06-02T03:57:45.278Z,18.50
2017-06-02T04:00:13.426Z,18.40
2017-06-02T04:02:40.713Z,18.40
2017-06-02T04:05:07.989Z,18.50
2017-06-02T04:07:35.317Z,18.70
2017-06-02T04:10:02.654Z,18.80
2017-06-02T04:12:29.990Z,18.90
2017-06-02T04:14:57.349Z,18.90
2017-06-02T04:17:24.331Z,18.90
2017-06-02T04:19:51.237Z,18.80
2017-06-02T04:22:18.602Z,18.80
2017-06-02T04:24:45.889Z,18.80
2017-06-02T04:27:13.218Z,19.00
2017-06-02T04:29:40.558Z,19.10
2017-06-02T04:32:07.447Z,19.10
2017-06-02T04:34:34.808Z,19.30
2017-06-02T04:37:02.157Z,19.50
2017-06-02T04:39:29.446Z,19.50
2017-06-02T04:41:56.434Z,19.60
2017-06-02T04:44:23.783Z,19.70
2017-06-02T04:46:51.083Z,19.70
2017-06-02T04:49:18.397Z,19.70
2017-06-02T04:51:45.726Z,19.60
2017-06-02T04:54:13.015Z,19.60
2017-06-02T04:56:40.294Z,19.50
2017-06-02T04:59:07.619Z,19.60
2017-06-02T05:01:34.970Z,19.60
2017-06-02T05:04:02.323Z,19.70
2017-06-02T05:06:29.698Z,19.60
2017-06-02T05:08:56.986Z,19.60
2017-06-02T05:11:24.296Z,19.70
2017-06-02T05:13:51.654Z,19.80
2017-06-02T05:16:19.001Z,20.00
2017-06-02T05:18:46.297Z,19.90
2017-06-02T05:21:13.512Z,19.90
2017-06-02T05:23:40.457Z,19.90
2017-06-02T05:26:07.826Z,20.00
2017-06-02T05:28:35.177Z,19.90
2017-06-02T05:31:02.526Z,20.00
2017-06-02T05:33:29.522Z,20.00
2017-06-02T05:35:56.879Z,20.40
2017-06-02T05:38:24.258Z,20.60
2017-06-02T05:40:51.173Z,20.50
2017-06-02T05:43:18.642Z,20.90
2017-06-02T05:45:45.931Z,20.90
2017-06-02T05:48:13.258Z,20.90
2017-06-02T05:50:40.541Z,20.90
2017-06-02T05:53:07.834Z,20.80
2017-06-02T05:55:35.226Z,20.90
2017-06-02T05:58:02.553Z,21.00
2017-06-02T06:00:29.837Z,21.20
2017-06-02T06:02:57.178Z,21.30
2017-06-02T06:05:24.463Z,21.40
2017-06-02T06:07:51.746Z,21.50
2017-06-02T06:10:19.095Z,21.70
2017-06-02T06:12:46.374Z,21.90
2017-06-02T06:15:13.337Z,21.90
2017-06-02T06:17:40.666Z,22.20
2017-06-02T06:20:07.957Z,22.30
2017-06-02T06:22:35.301Z,22.30
2017-06-02T06:25:02.681Z,22.40
2017-06-02T06:27:29.968Z,22.60
2017-06-02T06:29:57.265Z,22.60
2017-06-02T06:32:24.729Z,22.80
2017-06-02T06:34:52.086Z,22.90
2017-06-02T06:37:19.746Z,23.00
2017-06-02T06:39:47.127Z,23.10
2017-06-02T06:42:14.422Z,23.20
2017-06-02T06:44:41.802Z,23.30
2017-06-02T06:47:09.088Z,23.40
2017-06-02T06:49:36.407Z,23.50
2017-06-02T06:52:03.503Z,23.50
2017-06-02T06:54:30.782Z,23.80
2017-06-02T06:56:58.074Z,23.80
2017-06-02T06:59:25.408Z,23.90
2017-06-02T07:01:52.694Z,24.20
2017-06-02T07:04:20.145Z,24.50
2017-06-02T07:06:47.538Z,24.90
2017-06-02T07:09:14.821Z,25.10
2017-06-02T07:11:42.115Z,25.20
2017-06-02T07:14:09.557Z,25.30
2017-06-02T07:16:36.921Z,25.50
2017-06-02T07:19:04.282Z,25.60
2017-06-02T07:21:31.621Z,25.70
2017-06-02T07:23:58.909Z,25.80
2017-06-02T07:26:26.238Z,25.90
2017-06-02T07:28:53.569Z,25.90
2017-06-02T07:31:20.884Z,25.90
2017-06-02T07:33:48.203Z,25.90
2017-06-02T07:36:15.664Z,26.00
2017-06-02T07:38:43.058Z,26.10
2017-06-02T07:41:10.342Z,26.20
2017-06-02T07:43:37.673Z,26.10
2017-06-02T07:46:04.584Z,26.10
2017-06-02T07:48:31.869Z,26.00
2017-06-02T07:50:58.827Z,26.00
2017-06-02T07:53:26.132Z,25.90
2017-06-02T07:55:53.027Z,25.90
2017-06-02T07:58:20.462Z,25.90
2017-06-02T08:00:47.762Z,26.10
2017-06-02T08:03:15.156Z,26.10
2017-06-02T08:05:42.489Z,26.30
2017-06-02T08:08:09.857Z,26.30
2017-06-02T08:10:37.140Z,26.30
2017-06-02T08:13:04.531Z,26.30
2017-06-02T08:15:31.850Z,26.30
2017-06-02T08:17:59.134Z,26.40
2017-06-02T08:20:26.485Z,26.50
2017-06-02T08:22:53.798Z,26.70
2017-06-02T08:25:21.165Z,26.80
2017-06-02T08:27:48.525Z,26.80
2017-06-02T08:30:15.830Z,26.90
2017-06-02T08:32:43.234Z,27.00
2017-06-02T08:35:10.577Z,27.20
2017-06-02T08:37:37.951Z,27.30
2017-06-02T08:40:04.876Z,27.30
2017-06-02T08:42:32.226Z,27.60
2017-06-02T08:44:59.509Z,27.60
2017-06-02T08:47:26.803Z,27.70
2017-06-02T08:49:54.126Z,27.90
2017-06-02T08:52:21.404Z,28.00
2017-06-02T08:54:48.698Z,28.10
2017-06-02T08:57:16.030Z,28.20
2017-06-02T08:59:43.409Z,28.40
2017-06-02T09:02:10.766Z,28.50
2017-06-02T09:04:38.111Z,28.70
2017-06-02T09:07:05.003Z,28.70
2017-06-02T09:09:32.333Z,29.00
2017-06-02T09:11:59.661Z,29.00
2017-06-02T09:14:27.059Z,29.00
2017-06-02T09:16:54.346Z,28.90
2017-06-02T09:19:21.757Z,29.00
2017-06-02T09:21:49.106Z,29.00
2017-06-02T09:24:16.398Z,28.90
2017-06-02T09:26:43.754Z,29.00
2017-06-02T09:29:10.761Z,29.00
2017-06-02T09:31:37.654Z,29.10
2017-06-02T09:34:05.070Z,29.70
2017-06-02T09:36:31.993Z,29.70
2017-06-02T09:38:59.281Z,30.10
2017-06-02T09:41:26.610Z,30.20
2017-06-02T09:43:53.493Z,30.20
2017-06-02T09:46:20.830Z,30.30
2017-06-02T09:48:48.177Z,30.20
2017-06-02T09:51:15.545Z,30.10
2017-06-02T09:53:42.909Z,30.00
2017-06-02T09:56:10.237Z,30.00
2017-06-02T09:58:37.218Z,29.90
2017-06-02T10:01:04.550Z,30.10
2017-06-02T10:03:31.906Z,30.00
2017-06-02T10:05:59.191Z,30.00
2017-06-02T10:08:26.514Z,30.10
2017-06-02T10:10:53.971Z,30.20
2017-06-02T10:13:21.266Z,30.00
2017-06-02T10:15:48.562Z,29.70
2017-06-02T10:18:15.938Z,29.60
2017-06-02T10:20:43.290Z,29.50
2017-06-02T10:23:10.345Z,29.50
2017-06-02T10:25:37.739Z,29.30
2017-06-02T10:28:05.013Z,28.90
2017-06-02T10:30:32.305Z,28.60
2017-06-02T10:32:59.638Z,28.50
2017-06-02T10:35:27.024Z,28.60
2017-06-02T10:37:54.326Z,28.80
2017-06-02T10:40:21.770Z,28.90
2017-06-02T10:42:48.656Z,28.90
2017-06-02T10:45:15.732Z,29.10
2017-06-02T10:47:43.270Z,29.00
2017-06-02T10:50:10.550Z,29.10
2017-06-02T10:52:37.928Z,29.30
2017-06-02T10:55:04.871Z,29.30
2017-06-02T10:57:32.213Z,29.40
2017-06-02T10:59:59.530Z,29.30
2017-06-02T11:02:26.862Z,29.20
2017-06-02T11:04:54.146Z,29.10
2017-06-02T11:07:21.526Z,29.10
2017-06-02T11:09:48.882Z,29.20
2017-06-02T11:12:16.168Z,29.20
2017-06-02T11:14:43.450Z,29.20
2017-06-02T11:17:10.792Z,29.30
2017-06-02T11:19:37.685Z,29.30
2017-06-02T11:22:04.982Z,29.60
2017-06-02T11:24:32.309Z,29.70
2017-06-02T11:26:59.593Z,29.80
2017-06-02T11:29:26.478Z,29.80
2017-06-02T11:31:53.446Z,29.90
2017-06-02T11:34:20.798Z,29.70
2017-06-02T11:36:48.156Z,29.60
2017-06-02T11:39:15.516Z,29.60
2017-06-02T11:41:42.813Z,29.70
2017-06-02T11:44:10.122Z,29.80
2017-06-02T11:46:37.170Z,29.80
2017-06-02T11:49:04.463Z,29.90
2017-06-02T11:51:31.346Z,29.90
2017-06-02T11:53:58.681Z,30.10
2017-06-02T11:56:25.618Z,30.10
2017-06-02T11:58:52.899Z,30.30
2017-06-02T12:01:20.231Z,30.30
2017-06-02T12:03:47.518Z,30.30
2017-06-02T12:06:14.814Z,30.30
2017-06-02T12:08:42.149Z,30.20
2017-06-02T12:11:09.034Z,30.30
2017-06-02T12:13:36.693Z,30.30
2017-06-02T12:16:04.017Z,30.50
2017-06-02T12:18:30.979Z,30.50
2017-06-02T12:20:58.259Z,30.70
2017-06-02T12:23:25.198Z,30.70
2017-06-02T12:25:52.513Z,30.40
2017-06-02T12:28:19.806Z,30.50
2017-06-02T12:30:47.130Z,30.50
2017-06-02T12:33:14.415Z,30.50
2017-06-02T12:35:41.735Z,30.40
2017-06-02T12:38:09.093Z,30.20
2017-06-02T12:40:36.381Z,30.20
2017-06-02T12:43:03.694Z,30.30
2017-06-02T12:45:31.838Z,30.40
2017-06-02T12:47:59.151Z,30.30
2017-06-02T12:50:26.429Z,30.30
2017-06-02T12:52:53.789Z,30.30
2017-06-02T12:55:21.073Z,30.20
2017-06-02T12:57:47.965Z,30.20
2017-06-02T13:00:15.299Z,30.40
2017-06-02T13:02:43.233Z,30.70
2017-06-02T13:05:10.518Z,30.90
2017-06-02T13:07:37.455Z,30.90
2017-06-02T13:10:04.817Z,31.20
2017-06-02T13:12:32.106Z,31.10
2017-06-02T13:14:59.525Z,31.10
2017-06-02T13:17:26.417Z,31.10
2017-06-02T13:19:53.721Z,31.40
2017-06-02T13:22:21.047Z,31.50
2017-06-02T13:24:48.329Z,31.60
2017-06-02T13:27:15.714Z,31.70
2017-06-02T13:29:43.157Z,31.70
2017-06-02T13:32:10.513Z,31.60
2017-06-02T13:34:37.392Z,31.60
2017-06-02T13:37:04.397Z,31.70
2017-06-02T13:39:31.685Z,31.50
2017-06-02T13:41:59.014Z,31.50
2017-06-02T13:44:25.998Z,31.50
2017-06-02T13:46:53.317Z,31.30
2017-06-02T13:49:20.670Z,31.20
2017-06-02T13:51:48.426Z,31.10
2017-06-02T13:54:17.182Z,31.10
2017-06-02T13:56:44.463Z,31.10
2017-06-02T13:59:12.208Z,31.10
2017-06-02T14:01:39.494Z,31.20
2017-06-02T14:04:06.857Z,31.20
2017-06-02T14:06:34.215Z,31.20
2017-06-02T14:09:01.497Z,31.20
2017-06-02T14:11:28.787Z,31.30
2017-06-02T14:13:56.218Z,31.50
2017-06-02T14:16:23.499Z,31.70
2017-06-02T14:18:50.997Z,32.00
2017-06-02T14:21:18.329Z,32.30
2017-06-02T14:23:45.640Z,32.30
2017-06-02T14:26:12.545Z,32.30
2017-06-02T14:28:39.925Z,32.30
2017-06-02T14:31:07.201Z,32.50
2017-06-02T14:33:34.124Z,32.50
2017-06-02T14:36:01.457Z,32.40
2017-06-02T14:38:28.742Z,32.50
2017-06-02T14:40:55.654Z,32.50
2017-06-02T14:43:23.026Z,32.70
2017-06-02T14:45:50.346Z,32.60
2017-06-02T14:48:17.642Z,32.60
2017-06-02T14:50:45.050Z,32.50
2017-06-02T14:53:12.334Z,32.30
2017-06-02T14:55:39.618Z,32.00
2017-06-02T14:58:06.945Z,31.90
2017-06-02T15:00:34.301Z,31.90
2017-06-02T15:03:01.597Z,32.00
2017-06-02T15:05:28.926Z,32.00
2017-06-02T15:07:56.225Z,32.00
2017-06-02T15:10:23.514Z,32.10
2017-06-02T15:12:50.507Z,32.10
2017-06-02T15:15:17.785Z,32.20
2017-06-02T15:17:45.070Z,32.30
2017-06-02T15:20:12.389Z,32.30
2017-06-02T15:22:39.669Z,32.00
2017-06-02T15:25:06.654Z,32.00
2017-06-02T15:27:34.011Z,31.90
2017-06-02T15:30:01.296Z,31.90
2017-06-02T15:32:28.574Z,32.20
2017-06-02T15:34:55.917Z,32.50
2017-06-02T15:37:23.249Z,31.90
2017-06-02T15:39:50.575Z,30.30
2017-06-02T15:42:17.922Z,30.20
2017-06-02T15:44:45.202Z,30.30
2017-06-02T15:47:12.530Z,30.40
2017-06-02T15:49:39.905Z,30.40
2017-06-02T15:52:07.195Z,30.50
2017-06-02T15:54:34.086Z,30.50
2017-06-02T15:57:01.425Z,30.30
2017-06-02T15:59:28.942Z,30.10
2017-06-02T16:01:56.242Z,29.80
2017-06-02T16:04:23.609Z,29.40
2017-06-02T16:06:50.941Z,29.20
2017-06-02T16:09:18.222Z,28.90
2017-06-02T16:11:45.170Z,28.90
2017-06-02T16:14:12.460Z,28.60
2017-06-02T16:16:39.358Z,28.60
2017-06-02T16:19:06.717Z,28.60
2017-06-02T16:21:34.080Z,28.60
2017-06-02T16:24:01.447Z,28.60
2017-06-02T16:26:28.526Z,28.60
2017-06-02T16:28:55.805Z,28.40
2017-06-02T16:31:23.090Z,28.30
2017-06-02T16:33:50.654Z,28.20
2017-06-02T16:36:17.550Z,28.20
2017-06-02T16:38:44.826Z,27.70
2017-06-02T16:41:12.517Z,27.70
2017-06-02T16:43:39.873Z,27.80
2017-06-02T16:46:06.822Z,27.80
2017-06-02T16:48:34.173Z,27.60
2017-06-02T16:51:01.457Z,27.50
2017-06-02T16:53:28.789Z,27.70
2017-06-02T16:55:55.718Z,27.70
2017-06-02T16:58:23.005Z,27.50
2017-06-02T17:00:49.940Z,27.50
2017-06-02T17:03:17.287Z,27.20
2017-06-02T17:05:44.580Z,27.30
2017-06-02T17:08:11.905Z,27.30
2017-06-02T17:10:39.238Z,27.30
2017-06-02T17:13:06.610Z,27.10
2017-06-02T17:15:33.889Z,26.80
2017-06-02T17:18:01.262Z,26.60
2017-06-02T17:20:28.578Z,26.60
2017-06-02T17:22:55.938Z,26.60
2017-06-02T17:25:23.288Z,26.50
2017-06-02T17:27:50.645Z,26.50
2017-06-02T17:30:18.006Z,26.60
2017-06-02T17:32:45.354Z,26.70
2017-06-02T17:35:12.345Z,26.70
2017-06-02T17:37:39.629Z,26.60
2017-06-02T17:40:07.670Z,26.50
2017-06-02T17:42:34.966Z,26.30
2017-06-02T17:45:01.951Z,26.30
2017-06-02T17:47:30.033Z,25.70
2017-06-02T17:49:56.955Z,25.70
2017-06-02T17:52:23.897Z,25.70
2017-06-02T17:54:50.861Z,25.60
2017-06-02T17:57:18.139Z,25.40
2017-06-02T17:59:45.053Z,25.40
2017-06-02T18:02:12.092Z,25.40
2017-06-02T18:04:39.376Z,25.50
2017-06-02T18:07:06.730Z,25.70
2017-06-02T18:09:34.099Z,25.60
2017-06-02T18:12:01.108Z,25.60
2017-06-02T18:14:28.506Z,25.90
2017-06-02T18:16:55.793Z,25.90
2017-06-02T18:19:23.134Z,26.00
2017-06-02T18:21:50.418Z,26.30
2017-06-02T18:24:17.702Z,26.50
2017-06-02T18:26:45.053Z,26.60
2017-06-02T18:29:12.371Z,26.70
2017-06-02T18:31:39.651Z,26.80
2017-06-02T18:34:07.001Z,26.80
2017-06-02T18:36:34.298Z,26.80
2017-06-02T18:39:01.619Z,26.80
2017-06-02T18:41:28.970Z,26.80
2017-06-02T18:43:56.252Z,26.80
2017-06-02T18:46:23.582Z,26.70
2017-06-02T18:48:50.977Z,26.80
2017-06-02T18:51:17.858Z,26.70
2017-06-02T18:53:44.737Z,26.70
2017-06-02T18:56:12.071Z,26.50
2017-06-02T18:58:39.437Z,26.40
2017-06-02T19:01:06.325Z,26.40
2017-06-02T19:03:33.306Z,26.30
2017-06-02T19:06:00.603Z,26.00
2017-06-02T19:08:27.573Z,26.00
2017-06-02T19:10:54.997Z,25.70
2017-06-02T19:13:22.346Z,25.40
2017-06-02T19:15:49.706Z,24.80
2017-06-02T19:18:17.062Z,24.60
2017-06-02T19:20:44.417Z,24.60
2017-06-02T19:23:11.365Z,24.60
2017-06-02T19:25:38.717Z,24.80
2017-06-02T19:28:06.073Z,25.10
2017-06-02T19:30:33.021Z,25.10
2017-06-02T19:32:59.958Z,25.20
2017-06-02T19:35:27.246Z,25.30
2017-06-02T19:37:54.521Z,25.40
2017-06-02T19:40:22.109Z,25.40
2017-06-02T19:42:49.493Z,25.50
2017-06-02T19:45:16.846Z,25.50
2017-06-02T19:47:44.198Z,25.30
2017-06-02T19:50:11.487Z,25.30
2017-06-02T19:52:38.818Z,25.10
2017-06-02T19:55:05.745Z,25.20
2017-06-02T19:57:33.034Z,24.70
2017-06-02T20:00:00.317Z,24.50
2017-06-02T20:02:27.721Z,24.30
2017-06-02T20:04:55.181Z,24.40
2017-06-02T20:07:22.540Z,24.50
2017-06-02T20:09:50.405Z,24.60
2017-06-02T20:12:17.694Z,24.50
2017-06-02T20:14:45.018Z,24.50
2017-06-02T20:17:12.376Z,24.30
2017-06-02T20:19:39.662Z,24.20
2017-06-02T20:22:06.946Z,24.00
2017-06-02T20:24:34.038Z,24.00
2017-06-02T20:27:00.923Z,24.00
2017-06-02T20:29:27.809Z,24.00
2017-06-02T20:31:55.156Z,24.10
2017-06-02T20:34:22.543Z,23.80
2017-06-02T20:36:49.826Z,23.60
2017-06-02T20:39:17.158Z,23.40
2017-06-02T20:41:44.209Z,23.40
2017-06-02T20:44:11.494Z,23.30
2017-06-02T20:46:38.893Z,23.20
2017-06-02T20:49:05.782Z,23.20
2017-06-02T20:51:33.077Z,23.40
2017-06-02T20:54:00.416Z,23.50
2017-06-02T20:56:27.707Z,23.70
2017-06-02T20:58:54.994Z,23.60
2017-06-02T21:01:22.330Z,23.40
2017-06-02T21:03:49.622Z,23.10
2017-06-02T21:06:16.914Z,22.90
2017-06-02T21:08:44.290Z,22.80
2017-06-02T21:11:11.238Z,22.80
2017-06-02T21:13:39.057Z,23.00
2017-06-02T21:16:06.020Z,23.00
2017-06-02T21:18:33.327Z,22.80
2017-06-02T21:21:00.676Z,22.60
2017-06-02T21:23:28.021Z,22.50
2017-06-02T21:25:55.378Z,22.20
2017-06-02T21:28:22.730Z,22.00
2017-06-02T21:30:50.098Z,21.80
2017-06-02T21:33:17.447Z,21.70
2017-06-02T21:35:44.797Z,21.60
2017-06-02T21:38:11.742Z,21.60
2017-06-02T21:40:39.109Z,21.70
2017-06-02T21:43:06.466Z,21.70
2017-06-02T21:45:33.802Z,21.60
2017-06-02T21:48:01.085Z,21.70
2017-06-02T21:50:28.421Z,21.70
2017-06-02T21:52:55.822Z,21.60
2017-06-02T21:55:23.105Z,21.90
2017-06-02T21:57:50.522Z,22.20
2017-06-02T22:00:17.901Z,22.30
2017-06-02T22:02:45.205Z,22.30
2017-06-02T22:05:12.495Z,22.30
2017-06-02T22:07:39.820Z,22.30
2017-06-02T22:10:06.775Z,22.30
2017-06-02T22:12:34.122Z,22.40
2017-06-02T22:15:01.477Z,22.40
2017-06-02T22:17:28.822Z,22.30
2017-06-02T22:19:56.101Z,22.10
2017-06-02T22:22:23.138Z,22.10
2017-06-02T22:24:50.490Z,22.20
2017-06-02T22:27:17.790Z,22.30
2017-06-02T22:29:45.193Z,22.20
2017-06-02T22:32:12.186Z,22.20
2017-06-02T22:34:39.078Z,22.20
2017-06-02T22:37:06.405Z,22.40
2017-06-02T22:39:33.686Z,22.50
2017-06-02T22:42:01.053Z,22.60
2017-06-02T22:44:27.989Z,22.60
2017-06-02T22:46:55.358Z,22.50
2017-06-02T22:49:22.714Z,22.40
2017-06-02T22:51:50.454Z,22.30
2017-06-02T22:54:17.944Z,22.20
2017-06-02T22:56:45.305Z,22.30
2017-06-02T22:59:12.633Z,22.40
2017-06-02T23:01:40.003Z,22.40
2017-06-02T23:04:07.366Z,22.30
2017-06-02T23:06:34.821Z,22.20
2017-06-02T23:09:02.146Z,22.20
2017-06-02T23:11:29.544Z,22.40
2017-06-02T23:13:56.885Z,22.40
2017-06-02T23:16:24.179Z,22.50
2017-06-02T23:18:51.269Z,22.50
2017-06-02T23:21:18.197Z,22.60
2017-06-02T23:23:45.506Z,22.60
2017-06-02T23:26:12.857Z,22.60
2017-06-02T23:28:39.825Z,22.60
2017-06-02T23:31:07.139Z,22.50
2017-06-02T23:33:34.057Z,22.50
2017-06-02T23:36:01.450Z,22.40
2017-06-02T23:38:28.409Z,22.40
2017-06-02T23:40:55.757Z,22.30
2017-06-02T23:43:23.084Z,22.20
2017-06-02T23:45:50.375Z,22.30
2017-06-02T23:48:17.763Z,22.20
2017-06-02T23:50:45.118Z,22.20
2017-06-02T23:53:12.401Z,22.30
2017-06-02T23:55:39.715Z,22.20
2017-06-02T23:58:07.073Z,22.30
